createdAt,value
2019-05-11T00:00:25.307Z,68.5
2019-05-11T00:03:15.664Z,74.0
2019-05-11T00:06:15.526Z,74.3
2019-05-11T00:09:15.770Z,75.6
2019-05-11T00:12:15.045Z,79.8
2019-05-11T00:15:16.299Z,69.9
2019-05-11T00:18:15.858Z,70.9
2019-05-11T00:21:15.553Z,74.4
2019-05-11T00:24:14.910Z,71.6
2019-05-11T00:27:15.213Z,71.6
2019-05-11T00:30:15.294Z,71.6
2019-05-11T00:33:15.379Z,76.9
2019-05-11T00:36:15.342Z,74.7
2019-05-11T00:39:15.771Z,75.0
2019-05-11T00:42:15.645Z,71.4
2019-05-11T00:45:15.732Z,72.9
2019-05-11T00:48:15.847Z,75.3
2019-05-11T00:51:15.828Z,78.0
2019-05-11T00:54:15.827Z,78.3
2019-05-11T00:57:15.670Z,78.1
2019-05-11T01:00:15.585Z,73.7
2019-05-11T01:03:15.628Z,73.3
2019-05-11T01:06:15.600Z,71.4
2019-05-11T01:09:15.807Z,72.3
2019-05-11T01:12:15.817Z,72.7
2019-05-11T01:15:15.620Z,73.6
2019-05-11T01:18:15.845Z,76.3
2019-05-11T01:21:15.657Z,74.6
2019-05-11T01:24:15.688Z,78.6
2019-05-11T01:27:15.709Z,75.6
2019-05-11T01:30:15.500Z,78.6
2019-05-11T01:33:15.777Z,78.3
2019-05-11T01:36:15.650Z,77.8
2019-05-11T01:39:15.870Z,78.1
2019-05-11T01:42:15.626Z,80.3
2019-05-11T01:45:15.593Z,77.8
2019-05-11T01:48:15.705Z,81.5
2019-05-11T01:51:15.456Z,81.9
2019-05-11T01:54:15.808Z,76.5
2019-05-11T01:57:15.642Z,76.0
2019-05-11T02:00:15.080Z,78.2
2019-05-11T02:03:15.249Z,79.0
2019-05-11T02:06:15.589Z,82.9
2019-05-11T02:09:14.935Z,81.2
2019-05-11T02:12:15.445Z,81.6
2019-05-11T02:15:15.592Z,83.1
2019-05-11T02:18:15.807Z,84.0
2019-05-11T02:21:15.831Z,80.4
2019-05-11T02:24:15.696Z,78.9
2019-05-11T02:27:15.694Z,76.9
2019-05-11T02:30:15.773Z,77.6
2019-05-11T02:33:15.744Z,79.9
2019-05-11T02:36:14.851Z,79.1
2019-05-11T02:39:15.459Z,77.5
2019-05-11T02:42:15.342Z,77.6
2019-05-11T02:45:15.472Z,78.4
2019-05-11T02:48:15.576Z,79.3
2019-05-11T02:51:15.849Z,79.0
2019-05-11T02:54:15.607Z,78.6
2019-05-11T02:57:15.640Z,79.5
2019-05-11T03:00:15.884Z,79.4
2019-05-11T03:03:15.096Z,78.7
2019-05-11T03:06:15.581Z,79.5
2019-05-11T03:09:15.942Z,79.3
2019-05-11T03:12:15.046Z,79.8
2019-05-11T03:15:15.598Z,79.2
2019-05-11T03:18:15.162Z,80.4
2019-05-11T03:21:15.924Z,79.6
2019-05-11T03:24:14.929Z,79.1
2019-05-11T03:27:15.564Z,79.4
2019-05-11T03:30:15.137Z,79.5
2019-05-11T03:33:15.738Z,79.0
2019-05-11T03:36:14.999Z,79.2
2019-05-11T03:39:15.515Z,78.8
2019-05-11T03:42:15.786Z,79.0
2019-05-11T03:45:15.020Z,79.6
2019-05-11T03:48:15.746Z,79.5
2019-05-11T03:51:15.474Z,79.5
2019-05-11T03:54:15.773Z,79.2
2019-05-11T03:57:15.819Z,79.8
2019-05-11T04:00:15.041Z,79.6
2019-05-11T04:03:15.733Z,78.8
2019-05-11T04:06:15.059Z,79.5
2019-05-11T04:09:15.775Z,79.9
2019-05-11T04:12:33.469Z,79.2
2019-05-11T04:15:15.604Z,79.8
2019-05-11T04:18:15.030Z,79.6
2019-05-11T04:21:15.786Z,81.6
2019-05-11T04:24:15.027Z,80.8
2019-05-11T04:27:19.350Z,80.6
2019-05-11T04:30:15.401Z,80.8
2019-05-11T04:33:14.989Z,80.9
2019-05-11T04:36:15.853Z,80.5
2019-05-11T04:39:15.827Z,80.5
2019-05-11T04:42:15.837Z,80.2
2019-05-11T04:45:15.857Z,80.3
2019-05-11T04:48:15.116Z,80.0
2019-05-11T04:51:15.690Z,80.2
2019-05-11T04:54:14.911Z,80.3
2019-05-11T04:57:15.880Z,80.2
2019-05-11T05:00:15.939Z,80.4
2019-05-11T05:03:15.469Z,80.1
2019-05-11T05:06:22.258Z,80.5
2019-05-11T05:09:15.571Z,81.5
2019-05-11T05:12:15.690Z,80.0
2019-05-11T05:15:15.320Z,80.6
2019-05-11T05:18:14.979Z,81.8
2019-05-11T05:21:15.684Z,86.8
2019-05-11T05:24:15.089Z,86.8
2019-05-11T05:27:15.850Z,86.8
2019-05-11T05:30:14.941Z,85.5
2019-05-11T05:33:15.864Z,81.4
2019-05-11T05:36:15.324Z,82.6
2019-05-11T05:39:15.860Z,82.8
2019-05-11T05:42:15.662Z,81.1
2019-05-11T05:45:15.049Z,81.6
2019-05-11T05:48:15.884Z,81.3
2019-05-11T05:51:15.185Z,80.9
2019-05-11T05:54:15.143Z,81.1
2019-05-11T05:57:16.030Z,81.0
2019-05-11T06:00:14.987Z,81.3
2019-05-11T06:03:15.773Z,81.4
2019-05-11T06:06:14.973Z,81.7
2019-05-11T06:09:16.001Z,81.3
2019-05-11T06:12:15.213Z,80.9
2019-05-11T06:15:15.794Z,80.9
2019-05-11T06:18:15.647Z,81.5
2019-05-11T06:21:15.018Z,81.7
2019-05-11T06:24:15.922Z,81.4
2019-05-11T06:27:15.082Z,81.5
2019-05-11T06:30:14.892Z,81.3
2019-05-11T06:33:15.090Z,81.2
2019-05-11T06:36:15.682Z,80.6
2019-05-11T06:39:15.106Z,80.3
2019-05-11T06:42:15.939Z,80.5
2019-05-11T06:45:15.079Z,80.5
2019-05-11T06:48:14.946Z,81.1
2019-05-11T06:51:15.884Z,80.9
2019-05-11T06:54:15.266Z,80.8
2019-05-11T06:57:14.947Z,81.6
2019-05-11T07:00:15.753Z,81.9
2019-05-11T07:03:15.317Z,82.2
2019-05-11T07:06:15.178Z,81.9
2019-05-11T07:09:15.440Z,81.3
2019-05-11T07:12:15.216Z,81.4
2019-05-11T07:15:15.083Z,82.5
2019-05-11T07:18:15.883Z,83.2
2019-05-11T07:21:15.812Z,83.8
2019-05-11T07:24:15.096Z,84.1
2019-05-11T07:27:14.815Z,82.6
2019-05-11T07:30:15.725Z,82.6
2019-05-11T07:33:15.409Z,83.1
2019-05-11T07:36:14.973Z,82.6
2019-05-11T07:39:15.752Z,81.4
2019-05-11T07:42:17.873Z,81.6
2019-05-11T07:45:17.899Z,81.3
2019-05-11T07:48:15.691Z,82.5
2019-05-11T07:51:14.990Z,81.5
2019-05-11T07:54:15.804Z,84.4
2019-05-11T07:57:15.330Z,81.4
2019-05-11T08:00:15.538Z,81.1
2019-05-11T08:03:17.958Z,81.6
2019-05-11T08:06:18.037Z,80.9
2019-05-11T08:09:15.024Z,80.4
2019-05-11T08:12:15.795Z,81.4
2019-05-11T08:15:18.136Z,80.1
2019-05-11T08:18:15.388Z,80.8
2019-05-11T08:21:17.867Z,81.9
2019-05-11T08:24:17.944Z,81.6
2019-05-11T08:27:15.577Z,81.3
2019-05-11T08:30:15.089Z,79.9
2019-05-11T08:33:17.367Z,82.1
2019-05-11T08:36:15.018Z,82.9
2019-05-11T08:39:18.146Z,81.3
2019-05-11T08:42:15.056Z,84.0
2019-05-11T08:45:21.239Z,87.4
2019-05-11T08:48:14.973Z,87.9
2019-05-11T08:51:15.842Z,87.0
2019-05-11T08:54:14.961Z,83.9
2019-05-11T08:57:17.848Z,82.8
2019-05-11T09:00:17.810Z,80.8
2019-05-11T09:03:17.888Z,78.1
2019-05-11T09:06:17.903Z,79.8
2019-05-11T09:09:17.917Z,78.8
2019-05-11T09:12:18.172Z,80.4
2019-05-11T09:15:29.955Z,80.6
2019-05-11T09:18:15.827Z,80.5
2019-05-11T09:21:15.061Z,79.4
2019-05-11T09:24:15.182Z,79.6
2019-05-11T09:27:14.950Z,79.2
2019-05-11T09:30:15.756Z,79.9
2019-05-11T09:33:17.825Z,79.2
2019-05-11T09:36:17.975Z,77.4
2019-05-11T09:39:14.973Z,75.4
2019-05-11T09:42:17.788Z,75.7
2019-05-11T09:45:15.622Z,76.5
2019-05-11T09:48:15.313Z,73.2
2019-05-11T09:51:18.179Z,74.9
2019-05-11T09:54:18.229Z,74.4
2019-05-11T09:57:15.196Z,75.6
2019-05-11T10:00:17.884Z,75.1
2019-05-11T10:03:15.115Z,76.3
2019-05-11T10:06:15.704Z,75.6
2019-05-11T10:09:14.984Z,76.4
2019-05-11T10:12:18.050Z,76.8
2019-05-11T10:15:15.854Z,76.3
2019-05-11T10:18:15.374Z,75.1
2019-05-11T10:21:15.124Z,74.8
2019-05-11T10:24:17.792Z,74.4
2019-05-11T10:27:15.498Z,74.2
2019-05-11T10:30:14.955Z,75.0
2019-05-11T10:33:15.711Z,74.4
2019-05-11T10:36:15.993Z,74.1
2019-05-11T10:39:15.841Z,73.7
2019-05-11T10:42:15.285Z,72.5
2019-05-11T10:45:17.845Z,73.9
2019-05-11T10:48:17.717Z,73.6
2019-05-11T10:51:15.248Z,73.7
2019-05-11T10:54:15.716Z,74.6
2019-05-11T10:57:15.219Z,74.1
2019-05-11T11:00:17.813Z,72.5
2019-05-11T11:03:17.891Z,71.7
2019-05-11T11:06:15.738Z,71.7
2019-05-11T11:09:15.038Z,71.5
2019-05-11T11:12:15.093Z,71.7
2019-05-11T11:15:18.209Z,72.3
2019-05-11T11:18:15.170Z,72.9
2019-05-11T11:21:21.769Z,73.4
2019-05-11T11:24:18.039Z,74.1
2019-05-11T11:27:15.041Z,74.7
2019-05-11T11:30:17.968Z,74.7
2019-05-11T11:33:15.722Z,74.6
2019-05-11T11:36:15.148Z,74.3
2019-05-11T11:39:15.860Z,74.8
2019-05-11T11:42:15.121Z,75.7
2019-05-11T11:45:15.280Z,74.7
2019-05-11T11:48:15.061Z,75.2
2019-05-11T11:51:15.831Z,75.6
2019-05-11T11:54:17.950Z,76.6
2019-05-11T11:57:15.206Z,76.6
2019-05-11T12:00:18.104Z,78.2
2019-05-11T12:03:18.380Z,76.6
2019-05-11T12:06:15.218Z,76.5
2019-05-11T12:09:15.092Z,76.1
2019-05-11T12:12:15.247Z,76.4
2019-05-11T12:15:14.894Z,75.4
2019-05-11T12:18:14.992Z,75.3
2019-05-11T12:21:18.290Z,75.3
2019-05-11T12:24:15.143Z,75.4
2019-05-11T12:27:14.887Z,77.7
2019-05-11T12:30:14.865Z,79.1
2019-05-11T12:33:15.582Z,77.4
2019-05-11T12:36:15.130Z,75.8
2019-05-11T12:39:15.864Z,75.8
2019-05-11T12:42:17.830Z,76.3
2019-05-11T12:45:15.239Z,76.1
2019-05-11T12:48:15.187Z,75.3
2019-05-11T12:51:15.063Z,73.7
2019-05-11T12:54:15.019Z,75.0
2019-05-11T12:57:15.298Z,72.1
2019-05-11T13:00:15.041Z,72.1
2019-05-11T13:03:15.083Z,71.8
2019-05-11T13:06:15.800Z,71.9
2019-05-11T13:09:15.381Z,71.2
2019-05-11T13:12:15.511Z,72.3
2019-05-11T13:15:15.037Z,72.7
2019-05-11T13:18:14.908Z,73.4
2019-05-11T13:21:18.079Z,72.3
2019-05-11T13:24:14.894Z,73.5
2019-05-11T13:27:17.959Z,73.5
2019-05-11T13:30:15.676Z,73.8
2019-05-11T13:33:15.358Z,74.5
2019-05-11T13:36:15.048Z,75.4
2019-05-11T13:39:17.922Z,76.1
2019-05-11T13:42:15.688Z,75.2
2019-05-11T13:45:15.059Z,73.7
2019-05-11T13:48:17.517Z,73.3
2019-05-11T13:51:15.462Z,73.2
2019-05-11T13:54:15.000Z,73.4
2019-05-11T13:57:15.369Z,72.2
2019-05-11T14:00:14.987Z,72.9
2019-05-11T14:03:14.932Z,73.9
2019-05-11T14:06:17.760Z,71.8
2019-05-11T14:09:15.413Z,71.3
2019-05-11T14:12:18.042Z,72.3
2019-05-11T14:15:15.793Z,73.7
2019-05-11T14:18:17.638Z,73.3
2019-05-11T14:21:15.691Z,73.1
2019-05-11T14:24:15.264Z,74.3
2019-05-11T14:27:14.891Z,73.7
2019-05-11T14:30:15.246Z,73.2
2019-05-11T14:33:17.870Z,74.4
2019-05-11T14:36:15.156Z,72.8
2019-05-11T14:39:14.962Z,72.4
2019-05-11T14:42:15.061Z,74.0
2019-05-11T14:45:14.985Z,75.3
2019-05-11T14:48:25.876Z,76.6
2019-05-11T14:51:18.101Z,76.6
2019-05-11T14:54:15.221Z,75.8
2019-05-11T14:57:15.745Z,76.4
2019-05-11T15:00:15.569Z,76.3
2019-05-11T15:03:15.175Z,76.7
2019-05-11T15:06:15.686Z,77.5
2019-05-11T15:09:15.258Z,76.7
2019-05-11T15:12:17.971Z,75.2
2019-05-11T15:15:15.895Z,75.7
2019-05-11T15:18:17.595Z,76.1
2019-05-11T15:21:15.766Z,74.8
2019-05-11T15:24:18.326Z,75.4
2019-05-11T15:27:15.258Z,73.8
2019-05-11T15:33:15.717Z,73.9
2019-05-11T15:36:15.545Z,73.0
2019-05-11T15:39:15.039Z,72.9
2019-05-11T15:42:17.554Z,74.2
2019-05-11T15:45:18.432Z,74.4
2019-05-11T15:48:15.376Z,74.5
2019-05-11T15:51:15.444Z,73.2
2019-05-11T15:54:15.550Z,74.3
2019-05-11T15:57:17.806Z,72.1
2019-05-11T16:00:15.660Z,72.7
2019-05-11T16:03:15.627Z,72.6
2019-05-11T16:06:18.328Z,74.4
2019-05-11T16:09:15.488Z,73.7
2019-05-11T16:12:15.172Z,74.3
2019-05-11T16:15:15.735Z,73.0
2019-05-11T16:18:15.826Z,74.1
2019-05-11T16:21:15.276Z,73.6
2019-05-11T16:24:15.113Z,74.0
2019-05-11T16:27:15.046Z,73.4
2019-05-11T16:30:20.869Z,72.7
2019-05-11T16:33:15.191Z,73.2
2019-05-11T16:36:17.855Z,73.6
2019-05-11T16:39:15.762Z,72.6
2019-05-11T16:42:15.462Z,74.5
2019-05-11T16:45:15.222Z,74.0
2019-05-11T16:48:15.226Z,73.0
2019-05-11T16:51:15.182Z,73.3
2019-05-11T16:54:15.295Z,73.4
2019-05-11T16:57:17.688Z,73.5
2019-05-11T17:00:15.641Z,74.0
2019-05-11T17:03:15.382Z,74.4
2019-05-11T17:06:15.114Z,74.2
2019-05-11T17:09:17.859Z,74.4
2019-05-11T17:12:17.930Z,73.0
2019-05-11T17:15:18.202Z,73.6
2019-05-11T17:18:15.378Z,71.5
2019-05-11T17:21:14.954Z,71.9
2019-05-11T17:24:15.311Z,72.6
2019-05-11T17:27:15.555Z,71.3
2019-05-11T17:30:15.600Z,71.3
2019-05-11T17:33:17.438Z,72.3
2019-05-11T17:36:15.508Z,72.1
2019-05-11T17:39:15.904Z,71.5
2019-05-11T17:42:15.345Z,72.2
2019-05-11T17:45:15.169Z,71.5
2019-05-11T17:48:17.630Z,70.6
2019-05-11T17:51:21.253Z,71.1
2019-05-11T17:54:17.802Z,72.0
2019-05-11T17:57:15.714Z,72.6
2019-05-11T18:00:15.443Z,72.1
2019-05-11T18:03:15.697Z,72.3
2019-05-11T18:06:15.179Z,72.9
2019-05-11T18:09:15.197Z,72.4
2019-05-11T18:12:17.210Z,71.7
2019-05-11T18:15:15.487Z,72.3
2019-05-11T18:18:15.226Z,72.3
2019-05-11T18:21:15.335Z,72.7
2019-05-11T18:24:15.065Z,74.8
2019-05-11T18:27:15.176Z,73.8
2019-05-11T18:30:15.160Z,73.7
2019-05-11T18:33:15.328Z,73.5
2019-05-11T18:36:15.149Z,73.7
2019-05-11T18:39:15.227Z,73.7
2019-05-11T18:42:15.305Z,73.7
2019-05-11T18:45:15.304Z,72.2
2019-05-11T18:48:15.730Z,73.0
2019-05-11T18:51:15.035Z,72.8
2019-05-11T18:54:15.115Z,72.5
2019-05-11T18:57:15.297Z,72.9
2019-05-11T19:00:15.241Z,73.9
2019-05-11T19:03:15.860Z,75.1
2019-05-11T19:06:15.393Z,74.7
2019-05-11T19:09:17.844Z,73.3
2019-05-11T19:12:18.493Z,73.7
2019-05-11T19:15:15.531Z,75.4
2019-05-11T19:18:14.859Z,75.5
2019-05-11T19:21:17.841Z,75.8
2019-05-11T19:24:15.563Z,76.5
2019-05-11T19:27:15.193Z,76.3
2019-05-11T19:30:17.969Z,75.6
2019-05-11T19:33:15.825Z,75.9
2019-05-11T19:36:15.243Z,75.9
2019-05-11T19:39:15.475Z,76.6
2019-05-11T19:42:17.869Z,75.8
2019-05-11T19:45:15.390Z,76.0
2019-05-11T19:48:15.838Z,75.6
2019-05-11T19:51:15.427Z,76.0
2019-05-11T19:54:15.322Z,75.2
2019-05-11T19:57:18.006Z,75.9
2019-05-11T20:00:15.479Z,76.1
2019-05-11T20:03:18.049Z,75.7
2019-05-11T20:06:15.791Z,76.6
2019-05-11T20:09:15.376Z,75.6
2019-05-11T20:12:17.849Z,76.1
2019-05-11T20:15:15.805Z,76.2
2019-05-11T20:18:15.416Z,75.9
2019-05-11T20:21:19.570Z,75.8
2019-05-11T20:24:15.497Z,76.1
2019-05-11T20:27:14.999Z,76.1
2019-05-11T20:30:18.065Z,76.1
2019-05-11T20:33:15.582Z,75.8
2019-05-11T20:36:17.700Z,75.7
2019-05-11T20:39:15.125Z,75.9
2019-05-11T20:42:17.958Z,76.4
2019-05-11T20:45:15.059Z,76.1
2019-05-11T20:48:15.260Z,75.9
2019-05-11T20:51:15.147Z,76.5
2019-05-11T20:54:17.544Z,76.7
2019-05-11T20:57:15.245Z,76.3
2019-05-11T21:00:15.366Z,76.5
2019-05-11T21:03:15.523Z,76.4
2019-05-11T21:06:15.497Z,76.3
2019-05-11T21:09:15.545Z,77.4
2019-05-11T21:12:18.514Z,76.5
2019-05-11T21:15:23.751Z,76.4
2019-05-11T21:18:15.422Z,76.7
2019-05-11T21:21:15.554Z,76.3
2019-05-11T21:24:15.944Z,76.0
2019-05-11T21:27:15.496Z,75.8
2019-05-11T21:30:15.211Z,76.8
2019-05-11T21:33:15.075Z,77.1
2019-05-11T21:36:17.909Z,77.2
2019-05-11T21:39:15.049Z,77.0
2019-05-11T21:42:18.025Z,77.8
2019-05-11T21:45:17.840Z,77.8
2019-05-11T21:48:16.209Z,77.6
2019-05-11T21:51:21.023Z,77.8
2019-05-11T21:54:15.388Z,77.5
2019-05-11T21:57:18.197Z,77.1
2019-05-11T22:00:15.870Z,77.0
2019-05-11T22:03:22.224Z,77.0
2019-05-11T22:06:31.165Z,77.0
2019-05-11T22:09:15.090Z,76.6
2019-05-11T22:12:15.767Z,76.7
2019-05-11T22:15:17.203Z,76.3
2019-05-11T22:18:28.250Z,76.2
2019-05-11T22:21:16.017Z,76.9
2019-05-11T22:24:18.498Z,76.2
2019-05-11T22:27:18.376Z,76.4
2019-05-11T22:30:15.480Z,76.8
2019-05-11T22:33:17.602Z,77.2
2019-05-11T22:36:16.468Z,77.1
2019-05-11T22:39:18.581Z,76.8
2019-05-11T22:42:18.395Z,76.5
2019-05-11T22:45:15.880Z,76.8
2019-05-11T22:48:15.115Z,76.4
2019-05-11T22:51:15.415Z,77.5
2019-05-11T22:54:15.130Z,77.1
2019-05-11T22:57:15.670Z,77.4
2019-05-11T23:00:15.576Z,77.4
2019-05-11T23:03:15.384Z,77.0
2019-05-11T23:06:15.444Z,76.9
2019-05-11T23:09:18.271Z,77.5
2019-05-11T23:12:15.328Z,77.7
2019-05-11T23:15:15.990Z,77.1
2019-05-11T23:18:17.978Z,77.0
2019-05-11T23:21:15.787Z,76.7
2019-05-11T23:24:18.004Z,77.0
2019-05-11T23:27:15.494Z,77.3
2019-05-11T23:30:15.471Z,76.7
2019-05-11T23:33:15.762Z,77.3
2019-05-11T23:36:18.136Z,77.3
2019-05-11T23:39:17.717Z,77.5
2019-05-11T23:42:15.818Z,77.5
2019-05-11T23:45:15.734Z,77.3
2019-05-11T23:48:17.136Z,77.4
2019-05-11T23:51:17.971Z,77.6
2019-05-11T23:54:15.110Z,76.7
2019-05-11T23:57:15.376Z,76.8
